createdAt,value
2022-12-04T00:00:10.097Z,71.10
2022-12-04T00:03:04.197Z,71.80
2022-12-04T00:05:38.394Z,57.50
2022-12-04T00:08:12.538Z,69.60
2022-12-04T00:10:48.201Z,75.90
2022-12-04T00:13:22.138Z,68.30
2022-12-04T00:15:56.466Z,70.20
2022-12-04T00:18:30.441Z,69.40
2022-12-04T00:21:06.981Z,67.80
2022-12-04T00:23:42.038Z,64.70
2022-12-04T00:26:18.665Z,72.40
2022-12-04T00:28:53.896Z,73.30
2022-12-04T00:31:30.920Z,67.20
2022-12-04T00:34:07.971Z,73.60
2022-12-04T00:36:42.841Z,69.50
2022-12-04T00:39:17.109Z,71.40
2022-12-04T00:41:50.829Z,70.60
2022-12-04T00:44:24.594Z,75.80
2022-12-04T00:46:58.421Z,65.30
2022-12-04T00:49:32.689Z,62.80
2022-12-04T00:52:07.320Z,64.70
2022-12-04T00:54:41.402Z,65.90
2022-12-04T00:57:15.235Z,61.80
2022-12-04T00:59:49.438Z,61.50
2022-12-04T01:02:23.457Z,65.90
2022-12-04T01:04:57.194Z,62.60
2022-12-04T01:07:30.938Z,65.80
2022-12-04T01:10:05.973Z,64.20
2022-12-04T01:12:40.438Z,67.40
2022-12-04T01:15:15.377Z,66.90
2022-12-04T01:17:49.695Z,64.60
2022-12-04T01:20:23.884Z,63.50
2022-12-04T01:22:57.733Z,66.40
2022-12-04T01:25:32.028Z,62.10
2022-12-04T01:28:05.933Z,67.60
2022-12-04T01:30:39.925Z,64.40
2022-12-04T01:33:13.940Z,63.30
2022-12-04T01:35:58.432Z,64.00
2022-12-04T01:38:33.073Z,61.00
2022-12-04T01:41:07.858Z,59.40
2022-12-04T01:43:42.974Z,62.80
2022-12-04T01:46:17.021Z,61.80
2022-12-04T01:48:56.945Z,66.40
2022-12-04T01:51:38.757Z,65.70
2022-12-04T01:54:19.755Z,63.60
2022-12-04T01:56:59.964Z,66.50
2022-12-04T01:59:41.974Z,68.20
2022-12-04T02:02:23.190Z,62.50
2022-12-04T02:04:59.233Z,66.80
2022-12-04T02:07:34.107Z,63.10
2022-12-04T02:10:11.713Z,65.60
2022-12-04T02:12:57.257Z,69.30
2022-12-04T02:15:42.468Z,57.50
2022-12-04T02:18:28.376Z,63.20
2022-12-04T02:21:12.717Z,61.00
2022-12-04T02:24:11.314Z,71.20
2022-12-04T02:26:54.871Z,64.70
2022-12-04T02:29:41.359Z,62.50
2022-12-04T02:32:24.000Z,63.70
2022-12-04T02:35:05.434Z,62.60
2022-12-04T02:37:45.392Z,60.80
2022-12-04T02:40:28.008Z,64.00
2022-12-04T02:43:12.318Z,68.70
2022-12-04T02:45:52.654Z,60.40
2022-12-04T02:48:29.720Z,58.90
2022-12-04T02:51:08.870Z,61.10
2022-12-04T02:53:50.558Z,66.70
2022-12-04T02:56:30.958Z,67.70
2022-12-04T02:59:11.137Z,63.50
2022-12-04T03:01:53.027Z,60.30
2022-12-04T03:04:32.088Z,56.40
2022-12-04T03:07:11.669Z,65.10
2022-12-04T03:09:53.671Z,60.00
2022-12-04T03:12:38.083Z,66.50
2022-12-04T03:15:19.313Z,64.10
2022-12-04T03:18:01.764Z,57.00
2022-12-04T03:24:07.850Z,55.30
2022-12-04T03:26:46.313Z,56.00
2022-12-04T03:29:24.718Z,60.00
2022-12-04T03:32:07.903Z,61.80
2022-12-04T03:34:51.592Z,55.00
2022-12-04T03:37:35.387Z,61.10
2022-12-04T03:40:18.376Z,62.00
2022-12-04T03:43:00.478Z,52.90
2022-12-04T03:45:45.991Z,61.70
2022-12-04T03:48:25.807Z,59.50
2022-12-04T03:51:06.882Z,58.60
2022-12-04T03:53:48.179Z,59.40
2022-12-04T03:56:27.848Z,60.90
2022-12-04T03:59:07.983Z,57.20
2022-12-04T04:01:47.871Z,65.30
2022-12-04T04:04:27.534Z,66.00
2022-12-04T04:07:08.708Z,59.00
2022-12-04T04:09:48.858Z,59.20
2022-12-04T04:12:28.964Z,56.10
2022-12-04T04:15:30.746Z,63.10
2022-12-04T04:18:23.367Z,63.40
2022-12-04T04:21:19.263Z,63.30
2022-12-04T04:24:13.240Z,55.70
2022-12-04T04:26:50.493Z,57.30
2022-12-04T04:29:24.249Z,57.90
2022-12-04T04:32:05.877Z,62.10
2022-12-04T04:34:58.527Z,59.70
2022-12-04T04:37:47.084Z,56.10
2022-12-04T04:40:28.258Z,54.70
2022-12-04T04:43:10.143Z,63.20
2022-12-04T04:45:49.415Z,67.50
2022-12-04T04:48:31.417Z,68.80
2022-12-04T04:51:07.617Z,60.80
2022-12-04T04:53:47.370Z,59.20
2022-12-04T04:56:22.353Z,69.10
2022-12-04T04:58:56.067Z,60.80
2022-12-04T05:01:32.924Z,70.80
2022-12-04T05:04:08.765Z,70.20
2022-12-04T05:06:42.560Z,65.70
2022-12-04T05:09:16.546Z,60.50
2022-12-04T05:11:51.118Z,56.40
2022-12-04T05:14:24.851Z,56.50
2022-12-04T05:17:01.771Z,58.80
2022-12-04T05:19:57.882Z,63.00
2022-12-04T05:22:35.410Z,72.10
2022-12-04T05:25:11.671Z,63.60
2022-12-04T05:27:45.548Z,62.10
2022-12-04T05:30:20.543Z,53.10
2022-12-04T05:32:54.290Z,47.60
2022-12-04T05:35:28.414Z,67.40
2022-12-04T05:38:02.458Z,64.30
2022-12-04T05:40:37.310Z,64.70
2022-12-04T05:43:11.272Z,55.30
2022-12-04T05:45:45.151Z,56.20
2022-12-04T05:48:19.071Z,59.00
2022-12-04T05:50:53.091Z,57.10
2022-12-04T05:53:27.723Z,56.40
2022-12-04T05:56:04.506Z,57.90
2022-12-04T05:58:41.084Z,67.80
2022-12-04T06:01:20.218Z,62.70
2022-12-04T06:03:54.189Z,61.70
2022-12-04T06:06:29.364Z,58.10
2022-12-04T06:09:04.721Z,55.00
2022-12-04T06:11:41.762Z,55.30
2022-12-04T06:14:18.540Z,56.20
2022-12-04T06:16:52.529Z,60.40
2022-12-04T06:19:27.406Z,55.10
2022-12-04T06:22:01.780Z,52.00
2022-12-04T06:24:36.049Z,65.10
2022-12-04T06:30:03.867Z,66.40
2022-12-04T06:32:38.829Z,63.60
2022-12-04T06:35:14.968Z,57.30
2022-12-04T06:37:48.890Z,59.20
2022-12-04T06:40:22.966Z,59.90
2022-12-04T06:42:57.827Z,64.90
2022-12-04T06:45:31.968Z,62.80
2022-12-04T06:48:06.034Z,66.10
2022-12-04T06:50:39.783Z,59.70
2022-12-04T06:53:13.876Z,59.80
2022-12-04T06:55:55.062Z,54.90
2022-12-04T06:58:29.976Z,56.10
2022-12-04T07:01:09.509Z,60.40
2022-12-04T07:03:50.795Z,67.10
2022-12-04T07:06:29.118Z,57.60
2022-12-04T07:09:07.388Z,57.40
2022-12-04T07:11:43.998Z,53.30
2022-12-04T07:14:18.635Z,56.30
2022-12-04T07:16:52.649Z,58.20
2022-12-04T07:19:27.083Z,58.60
2022-12-04T07:22:01.625Z,56.20
2022-12-04T07:24:37.394Z,57.30
2022-12-04T07:27:11.501Z,55.60
2022-12-04T07:29:45.505Z,54.50
2022-12-04T07:32:20.310Z,63.20
2022-12-04T07:34:54.485Z,60.90
2022-12-04T07:37:28.679Z,55.00
2022-12-04T07:40:02.411Z,57.90
2022-12-04T07:42:37.168Z,48.50
2022-12-04T07:45:13.162Z,50.60
2022-12-04T07:47:47.358Z,61.80
2022-12-04T07:50:21.821Z,57.70
2022-12-04T07:52:55.567Z,55.70
2022-12-04T07:55:29.439Z,53.40
2022-12-04T07:58:04.574Z,55.90
2022-12-04T08:00:38.583Z,57.80
2022-12-04T08:03:12.741Z,51.50
2022-12-04T08:05:47.127Z,51.70
2022-12-04T08:08:21.246Z,54.60
2022-12-04T08:10:55.215Z,52.10
2022-12-04T08:13:29.317Z,52.60
2022-12-04T08:16:07.141Z,55.90
2022-12-04T08:18:47.069Z,53.50
2022-12-04T08:21:24.542Z,60.30
2022-12-04T08:24:01.144Z,55.60
2022-12-04T08:26:36.246Z,53.90
2022-12-04T08:29:10.622Z,53.70
2022-12-04T08:31:44.601Z,56.80
2022-12-04T08:34:18.745Z,57.30
2022-12-04T08:36:52.671Z,57.40
2022-12-04T08:39:27.963Z,53.40
2022-12-04T08:42:01.871Z,53.00
2022-12-04T08:44:36.217Z,47.60
2022-12-04T08:47:10.438Z,55.50
2022-12-04T08:49:44.580Z,45.10
2022-12-04T08:52:18.972Z,49.50
2022-12-04T08:54:54.349Z,42.20
2022-12-04T08:57:28.531Z,50.70
2022-12-04T09:00:05.665Z,47.70
2022-12-04T09:02:39.974Z,45.00
2022-12-04T09:05:16.401Z,53.00
2022-12-04T09:07:50.779Z,45.10
2022-12-04T09:10:25.175Z,44.70
2022-12-04T09:12:59.306Z,47.10
2022-12-04T09:15:34.010Z,42.30
2022-12-04T09:18:08.714Z,39.90
2022-12-04T09:20:43.122Z,42.40
2022-12-04T09:23:17.337Z,41.80
2022-12-04T09:25:52.105Z,45.40
2022-12-04T09:28:26.175Z,43.60
2022-12-04T09:31:06.862Z,41.80
2022-12-04T09:33:41.080Z,42.50
2022-12-04T09:36:17.182Z,41.50
2022-12-04T09:38:54.373Z,42.30
2022-12-04T09:42:00.748Z,43.60
2022-12-04T09:44:41.616Z,36.20
2022-12-04T09:47:32.862Z,44.80
2022-12-04T09:50:16.875Z,37.70
2022-12-04T09:53:03.572Z,39.80
2022-12-04T09:55:45.823Z,43.30
2022-12-04T09:58:30.103Z,40.40
2022-12-04T10:01:07.008Z,38.50
2022-12-04T10:03:42.628Z,38.10
2022-12-04T10:06:23.230Z,35.70
2022-12-04T10:09:06.314Z,39.10
2022-12-04T10:11:58.436Z,44.00
2022-12-04T10:14:54.332Z,35.30
2022-12-04T10:17:44.585Z,35.40
2022-12-04T10:20:51.167Z,37.30
2022-12-04T10:23:37.523Z,32.10
2022-12-04T10:26:18.179Z,30.90
2022-12-04T10:28:59.573Z,30.80
2022-12-04T10:31:36.613Z,31.50
2022-12-04T10:34:21.852Z,26.60
2022-12-04T10:37:02.107Z,30.00
2022-12-04T10:39:45.949Z,26.30
2022-12-04T10:42:32.739Z,28.90
2022-12-04T10:45:08.544Z,29.60
2022-12-04T10:47:49.735Z,25.70
2022-12-04T10:50:26.316Z,24.50
2022-12-04T10:53:04.019Z,28.80
2022-12-04T10:55:39.992Z,25.20
2022-12-04T10:58:21.677Z,27.50
2022-12-04T11:01:07.728Z,28.00
2022-12-04T11:03:45.117Z,24.20
2022-12-04T11:06:30.534Z,27.70
2022-12-04T11:09:08.414Z,25.10
2022-12-04T11:11:45.985Z,26.30
2022-12-04T11:14:24.275Z,25.80
2022-12-04T11:17:08.744Z,23.40
2022-12-04T11:19:45.355Z,24.60
2022-12-04T11:22:24.343Z,24.80
2022-12-04T11:25:01.710Z,25.20
2022-12-04T11:27:38.204Z,28.00
2022-12-04T11:30:26.893Z,25.90
2022-12-04T11:33:03.342Z,24.30
2022-12-04T11:35:38.776Z,29.60
2022-12-04T11:38:19.528Z,29.10
2022-12-04T11:41:00.421Z,32.50
2022-12-04T11:43:38.159Z,34.20
2022-12-04T11:46:26.071Z,29.80
2022-12-04T11:49:03.046Z,30.20
2022-12-04T11:51:55.884Z,29.80
2022-12-04T11:54:43.138Z,32.80
2022-12-04T11:57:32.344Z,30.60
2022-12-04T12:00:17.650Z,31.10
2022-12-04T12:03:12.579Z,34.30
2022-12-04T12:06:19.261Z,28.50
2022-12-04T12:09:10.171Z,29.30
2022-12-04T12:11:51.068Z,30.30
2022-12-04T12:14:34.472Z,30.00
2022-12-04T12:17:23.794Z,30.40
2022-12-04T12:20:24.435Z,27.80
2022-12-04T12:23:18.297Z,29.00
2022-12-04T12:26:02.708Z,30.10
2022-12-04T12:29:06.227Z,33.40
2022-12-04T12:32:01.201Z,32.30
2022-12-04T12:34:44.625Z,31.20
2022-12-04T12:37:30.765Z,32.80
2022-12-04T12:40:13.656Z,32.60
2022-12-04T12:42:58.455Z,32.10
2022-12-04T12:45:46.292Z,31.50
2022-12-04T12:48:31.727Z,31.40
2022-12-04T12:51:30.900Z,31.60
2022-12-04T12:54:17.954Z,31.80
2022-12-04T12:56:57.694Z,33.80
2022-12-04T12:59:32.570Z,34.70
2022-12-04T13:02:28.711Z,31.80
2022-12-04T13:05:10.573Z,29.40
2022-12-04T13:07:53.309Z,32.20
2022-12-04T13:10:33.104Z,31.00
2022-12-04T13:13:18.387Z,30.50
2022-12-04T13:15:58.274Z,35.50
2022-12-04T13:18:42.097Z,29.10
2022-12-04T13:21:34.561Z,31.20
2022-12-04T13:24:50.786Z,32.10
2022-12-04T13:27:44.188Z,35.10
2022-12-04T13:30:24.684Z,33.80
2022-12-04T13:33:56.010Z,32.60
2022-12-04T13:37:03.140Z,31.00
2022-12-04T13:40:30.718Z,31.40
2022-12-04T13:43:33.323Z,33.40
2022-12-04T13:46:24.138Z,34.80
2022-12-04T13:49:26.013Z,32.20
2022-12-04T13:52:03.472Z,33.10
2022-12-04T13:54:38.773Z,35.50
2022-12-04T13:57:27.890Z,37.50
2022-12-04T14:00:28.374Z,36.00
2022-12-04T14:03:21.229Z,37.70
2022-12-04T14:05:55.781Z,36.60
2022-12-04T14:08:37.017Z,39.70
2022-12-04T14:11:17.633Z,39.10
2022-12-04T14:13:55.071Z,33.20
2022-12-04T14:16:37.165Z,37.30
2022-12-04T14:19:29.442Z,36.20
2022-12-04T14:22:03.703Z,40.00
2022-12-04T14:24:40.654Z,42.70
2022-12-04T14:27:44.160Z,42.20
2022-12-04T14:30:25.438Z,39.30
2022-12-04T14:33:09.667Z,42.20
2022-12-04T14:35:53.572Z,38.40
2022-12-04T14:38:29.255Z,35.40
2022-12-04T14:41:06.689Z,35.90
2022-12-04T14:43:48.396Z,40.50
2022-12-04T14:46:31.690Z,39.80
2022-12-04T14:49:22.976Z,40.70
2022-12-04T14:52:07.820Z,38.80
2022-12-04T14:54:54.521Z,35.10
2022-12-04T14:57:53.071Z,35.70
2022-12-04T15:00:28.336Z,35.10
2022-12-04T15:03:05.759Z,37.50
2022-12-04T15:05:40.068Z,38.80
2022-12-04T15:08:16.899Z,41.00
2022-12-04T15:11:12.887Z,42.10
2022-12-04T15:13:46.566Z,37.60
2022-12-04T15:16:25.677Z,42.80
2022-12-04T15:19:01.776Z,37.80
2022-12-04T15:21:42.484Z,40.90
2022-12-04T15:24:23.500Z,43.30
2022-12-04T15:26:58.681Z,42.80
2022-12-04T15:29:38.164Z,43.40
2022-12-04T15:32:16.256Z,41.20
2022-12-04T15:34:55.413Z,38.90
2022-12-04T15:37:32.863Z,37.00
2022-12-04T15:40:19.760Z,40.40
2022-12-04T15:42:54.760Z,44.80
2022-12-04T15:45:34.909Z,38.20
2022-12-04T15:48:09.413Z,43.70
2022-12-04T15:50:45.038Z,44.10
2022-12-04T15:53:26.119Z,44.60
2022-12-04T15:56:03.913Z,44.90
2022-12-04T15:58:40.168Z,35.80
2022-12-04T16:01:16.289Z,47.00
2022-12-04T16:03:53.755Z,37.90
2022-12-04T16:06:30.030Z,39.50
2022-12-04T16:09:23.141Z,45.00
2022-12-04T16:12:06.619Z,47.20
2022-12-04T16:14:40.275Z,41.80
2022-12-04T16:17:16.334Z,45.40
2022-12-04T16:19:50.831Z,40.20
2022-12-04T16:22:26.927Z,47.20
2022-12-04T16:25:00.764Z,47.00
2022-12-04T16:27:35.037Z,45.90
2022-12-04T16:30:11.713Z,45.70
2022-12-04T16:32:45.562Z,43.60
2022-12-04T16:35:20.648Z,44.10
2022-12-04T16:37:54.610Z,38.60
2022-12-04T16:40:28.762Z,48.10
2022-12-04T16:43:03.196Z,50.50
2022-12-04T16:45:38.993Z,42.00
2022-12-04T16:48:13.359Z,45.40
2022-12-04T16:50:48.820Z,37.00
2022-12-04T16:53:26.426Z,46.10
2022-12-04T16:56:04.005Z,52.20
2022-12-04T16:58:38.427Z,45.80
2022-12-04T17:01:24.865Z,45.60
2022-12-04T17:03:58.683Z,49.10
2022-12-04T17:06:33.522Z,31.90
2022-12-04T17:09:09.096Z,41.50
2022-12-04T17:11:43.323Z,49.50
2022-12-04T17:14:17.627Z,48.80
2022-12-04T17:16:53.982Z,48.90
2022-12-04T17:19:31.545Z,46.60
2022-12-04T17:22:06.103Z,45.70
2022-12-04T17:24:47.203Z,41.90
2022-12-04T17:27:23.977Z,51.60
2022-12-04T17:29:59.840Z,53.80
2022-12-04T17:32:35.421Z,50.90
2022-12-04T17:35:13.412Z,48.30
2022-12-04T17:37:47.912Z,43.80
2022-12-04T17:40:22.508Z,50.70
2022-12-04T17:42:57.251Z,44.40
2022-12-04T17:45:31.698Z,46.80
2022-12-04T17:48:06.101Z,42.70
2022-12-04T17:50:40.115Z,40.90
2022-12-04T17:53:14.211Z,43.80
2022-12-04T17:55:50.879Z,50.90
2022-12-04T17:58:25.473Z,47.30
2022-12-04T18:01:05.194Z,48.80
2022-12-04T18:03:39.959Z,42.90
2022-12-04T18:06:20.862Z,45.60
2022-12-04T18:08:55.330Z,55.40
2022-12-04T18:11:32.659Z,49.20
2022-12-04T18:14:12.286Z,46.90
2022-12-04T18:16:53.136Z,45.10
2022-12-04T18:19:30.503Z,48.10
2022-12-04T18:22:04.564Z,49.50
2022-12-04T18:24:38.760Z,52.00
2022-12-04T18:27:13.326Z,47.50
2022-12-04T18:29:48.573Z,48.30
2022-12-04T18:32:22.578Z,46.80
2022-12-04T18:34:57.425Z,52.40
2022-12-04T18:37:31.507Z,54.50
2022-12-04T18:40:07.411Z,53.40
2022-12-04T18:42:41.880Z,49.20
2022-12-04T18:45:16.106Z,51.20
2022-12-04T18:47:51.967Z,47.10
2022-12-04T18:50:25.925Z,50.60
2022-12-04T18:53:01.614Z,59.90
2022-12-04T18:55:39.528Z,53.80
2022-12-04T18:58:13.633Z,57.20
2022-12-04T19:00:48.160Z,50.90
2022-12-04T19:03:22.532Z,50.80
2022-12-04T19:05:57.477Z,49.30
2022-12-04T19:08:34.275Z,54.50
2022-12-04T19:11:17.269Z,53.60
2022-12-04T19:13:51.315Z,53.30
2022-12-04T19:16:25.811Z,49.80
2022-12-04T19:19:00.583Z,46.80
2022-12-04T19:21:34.868Z,47.70
2022-12-04T19:24:10.739Z,52.70
2022-12-04T19:26:45.182Z,49.60
2022-12-04T19:29:19.447Z,49.80
2022-12-04T19:31:59.098Z,54.10
2022-12-04T19:34:33.719Z,52.30
2022-12-04T19:37:07.959Z,56.00
2022-12-04T19:39:42.565Z,57.90
2022-12-04T19:42:16.760Z,53.30
2022-12-04T19:44:50.911Z,46.20
2022-12-04T19:47:27.398Z,60.90
2022-12-04T19:50:01.327Z,55.50
2022-12-04T19:52:35.839Z,52.60
2022-12-04T19:55:11.493Z,48.30
2022-12-04T19:57:45.200Z,50.00
2022-12-04T20:00:20.822Z,48.80
2022-12-04T20:02:54.926Z,49.70
2022-12-04T20:05:29.577Z,50.30
2022-12-04T20:10:39.966Z,47.10
2022-12-04T20:13:14.509Z,49.50
2022-12-04T20:15:48.672Z,42.20
2022-12-04T20:18:22.870Z,43.30
2022-12-04T20:21:01.960Z,46.30
2022-12-04T20:23:35.949Z,41.70
2022-12-04T20:26:13.396Z,46.20
2022-12-04T20:28:48.227Z,41.90
2022-12-04T20:31:25.897Z,42.30
2022-12-04T20:34:05.093Z,43.80
2022-12-04T20:36:44.744Z,50.00
2022-12-04T20:39:21.052Z,51.20
2022-12-04T20:41:55.602Z,51.10
2022-12-04T20:44:30.846Z,45.60
2022-12-04T20:47:05.198Z,44.60
2022-12-04T20:49:40.025Z,53.20
2022-12-04T20:52:14.262Z,48.70
2022-12-04T20:54:48.614Z,45.50
2022-12-04T20:57:23.817Z,46.90
2022-12-04T20:59:59.492Z,44.30
2022-12-04T21:02:34.131Z,48.20
2022-12-04T21:05:09.999Z,50.80
2022-12-04T21:07:44.845Z,56.20
2022-12-04T21:10:19.234Z,51.80
2022-12-04T21:13:11.472Z,50.30
2022-12-04T21:16:05.561Z,43.00
2022-12-04T21:18:41.039Z,48.70
2022-12-04T21:21:15.712Z,51.80
2022-12-04T21:23:50.063Z,53.40
2022-12-04T21:26:29.136Z,51.00
2022-12-04T21:29:05.073Z,46.20
2022-12-04T21:31:40.933Z,40.80
2022-12-04T21:34:18.484Z,53.60
2022-12-04T21:36:52.991Z,53.10
2022-12-04T21:39:27.298Z,51.60
2022-12-04T21:42:19.603Z,48.70
2022-12-04T21:44:54.076Z,46.90
2022-12-04T21:47:28.477Z,42.60
2022-12-04T21:50:03.254Z,50.50
2022-12-04T21:52:37.434Z,44.80
2022-12-04T21:55:12.777Z,51.90
2022-12-04T21:57:47.092Z,40.80
2022-12-04T22:00:22.769Z,51.10
2022-12-04T22:02:57.023Z,48.10
2022-12-04T22:05:34.484Z,50.80
2022-12-04T22:08:09.531Z,47.10
2022-12-04T22:10:47.489Z,46.40
2022-12-04T22:13:21.502Z,49.50
2022-12-04T22:15:55.354Z,52.10
2022-12-04T22:18:29.961Z,55.90
2022-12-04T22:21:07.008Z,48.50
2022-12-04T22:23:41.514Z,54.60
2022-12-04T22:26:20.447Z,50.40
2022-12-04T22:28:54.362Z,53.70
2022-12-04T22:31:30.895Z,55.30
2022-12-04T22:34:06.017Z,52.00
2022-12-04T22:36:40.343Z,50.80
2022-12-04T22:39:14.188Z,50.70
2022-12-04T22:41:48.415Z,57.10
2022-12-04T22:44:22.690Z,52.50
2022-12-04T22:46:57.005Z,56.20
2022-12-04T22:49:30.872Z,47.50
2022-12-04T22:52:04.915Z,49.40
2022-12-04T22:54:38.902Z,56.00
2022-12-04T22:57:14.282Z,54.50
2022-12-04T22:59:48.754Z,55.30
2022-12-04T23:02:23.909Z,50.30
2022-12-04T23:04:58.784Z,50.50
2022-12-04T23:07:33.216Z,54.00
2022-12-04T23:10:09.942Z,48.80
2022-12-04T23:12:48.711Z,49.70
2022-12-04T23:15:23.674Z,52.30
2022-12-04T23:17:58.574Z,53.80
2022-12-04T23:20:33.429Z,46.40
2022-12-04T23:23:08.269Z,43.80
2022-12-04T23:25:45.240Z,50.00
2022-12-04T23:28:20.080Z,50.10
2022-12-04T23:30:54.911Z,50.00
2022-12-04T23:33:30.914Z,51.10
2022-12-04T23:36:07.772Z,46.40
2022-12-04T23:38:44.529Z,49.90
2022-12-04T23:41:21.295Z,51.20
2022-12-04T23:43:57.709Z,52.30
2022-12-04T23:46:34.415Z,46.50
2022-12-04T23:49:09.024Z,48.20
2022-12-04T23:51:43.557Z,53.50
2022-12-04T23:54:18.398Z,49.10
2022-12-04T23:56:52.645Z,49.10
2022-12-04T23:59:27.174Z,45.50
